Beacon Falls, CT (06403)

6:55 PM EDT on March 28, 2015 (GMT -0400)
Blue Birds Knoll | | Change Station
CLOSE
Current Station
Personal Weather Station
Location: Bethany, CT
Elevation: 423 ft
Nearby Weather Stations

Elev 423 ft 41.40 °N, 73.03 °W | Updated 2 seconds ago

Snow
Snow
30.4 °F
Feels Like 30 °F
N
3.0
Wind Variable Wind from SW
Gusts 3.0 mph

Today
High -- | Low -- °F
--% Chance of Precip.
Yesterday
High -- | Low -- °F
Precip. -- in
6:42 AM 7:12 PM
Waxing Gibbous, 66% visible
Pressure 29.90 in
Visibility 1.8 miles
Clouds Overcast 1800 ft
Windchill 30 °F
Dew Point 25 °F
Humidity 79%
Rainfall 0.07 in
Snow Depth Not available.
UV 0 out of 12
Pollen 3.60 out of 12
Air Quality Not available.
Flu Activity Not available.
METAR KOXC 282235Z 33009G14KT 1 3/4SM OVC018 M02/M08 A2990 RMK AO1

More Conditions Fewer Conditions

Pressure 29.90 in
Visibility 1.8 miles
Clouds Overcast 1800 ft
Windchill 30 °F
Dew Point 25 °F
Humidity 79%
Rainfall 0.07 in
Snow Depth Not available.
UV 0 out of 12
Pollen 3.60 out of 12
Air Quality Not available.
Flu Activity Not available.
METAR KOXC 282235Z 33009G14KT 1 3/4SM OVC018 M02/M08 A2990 RMK AO1

More Conditions Fewer Conditions

10-Day Weather Forecast

Almanac

Astronomy

Mar. 28, 2015 Rise Set
Actual Time
Civil Twilight
Nautical Twilight
Astronomical Twilight
Moon
Length of Visible Light
Length of Day
Tomorrow will be .
, % of the Moon is Illuminated

Today's Extremes

State Highs State Lows

Community

WunderPhotos

Upload Photos

1,809,117 photos uploaded!

WunderBlogs® & News

Nearby

Air Quality

  Air Quality AQ Index Pollutant
Not available.

Snow Depth

Station Depth Elevation

Earthquake Activity

City Distance Mag. Time & Date
Minimum magnitude displayed is 2.5.

Coastal Water Temperatures

Place Temperature

Stations

Nearby Weather Stations

Station Location Temp. Windchill Dew Point Humidity Wind Precip. Elev Updated Type